createdAt,value
2022-10-22T00:02:20.065Z,28.70
2022-10-22T00:04:48.825Z,24.40
2022-10-22T00:07:17.488Z,22.30
2022-10-22T00:09:44.138Z,24.50
2022-10-22T00:12:14.858Z,26.20
2022-10-22T00:14:42.123Z,28.50
2022-10-22T00:17:11.454Z,25.10
2022-10-22T00:19:39.298Z,28.90
2022-10-22T00:22:07.874Z,21.70
2022-10-22T00:24:37.067Z,24.50
2022-10-22T00:27:04.621Z,22.50
2022-10-22T00:29:31.571Z,24.50
2022-10-22T00:31:58.209Z,24.40
2022-10-22T00:34:25.517Z,24.00
2022-10-22T00:36:53.013Z,23.10
2022-10-22T00:39:23.002Z,20.60
2022-10-22T00:41:51.975Z,20.90
2022-10-22T00:44:50.055Z,20.00
2022-10-22T00:47:18.264Z,17.90
2022-10-22T00:49:46.347Z,23.10
2022-10-22T00:52:13.861Z,22.80
2022-10-22T00:54:41.534Z,23.00
2022-10-22T00:57:08.919Z,25.00
2022-10-22T00:59:37.409Z,22.10
2022-10-22T01:02:04.011Z,20.90
2022-10-22T01:04:30.571Z,22.40
2022-10-22T01:06:59.492Z,21.50
2022-10-22T01:09:41.865Z,25.50
2022-10-22T01:12:34.583Z,20.90
2022-10-22T01:15:16.006Z,22.80
2022-10-22T01:18:02.305Z,23.50
2022-10-22T01:20:52.711Z,20.80
2022-10-22T01:23:41.484Z,20.20
2022-10-22T01:26:32.850Z,20.80
2022-10-22T01:29:10.876Z,27.20
2022-10-22T01:31:44.105Z,19.90
2022-10-22T01:34:15.965Z,26.60
2022-10-22T01:36:44.959Z,21.60
2022-10-22T01:39:14.757Z,22.50
2022-10-22T01:41:45.462Z,21.50
2022-10-22T01:44:29.062Z,19.70
2022-10-22T01:47:15.630Z,24.50
2022-10-22T01:50:05.311Z,24.40
2022-10-22T01:52:52.475Z,28.10
2022-10-22T01:55:30.301Z,22.10
2022-10-22T01:58:13.728Z,22.30
2022-10-22T02:00:48.087Z,24.30
2022-10-22T02:03:23.010Z,22.80
2022-10-22T02:05:56.989Z,22.70
2022-10-22T02:08:28.092Z,25.80
2022-10-22T02:10:56.918Z,20.30
2022-10-22T02:13:36.945Z,24.90
2022-10-22T02:16:07.811Z,29.20
2022-10-22T02:18:39.452Z,22.50
2022-10-22T02:23:33.739Z,23.10
2022-10-22T02:26:06.805Z,27.70
2022-10-22T02:28:42.903Z,20.70
2022-10-22T02:31:16.432Z,20.80
2022-10-22T02:33:48.251Z,19.20
2022-10-22T02:36:16.993Z,24.40
2022-10-22T02:38:46.950Z,23.80
2022-10-22T02:41:15.562Z,25.00
2022-10-22T02:43:43.753Z,18.40
2022-10-22T02:46:11.179Z,26.00
2022-10-22T02:48:37.658Z,24.20
2022-10-22T02:51:04.381Z,20.20
2022-10-22T02:53:33.572Z,22.30
2022-10-22T02:56:00.189Z,20.80
2022-10-22T02:58:27.079Z,21.00
2022-10-22T03:00:54.028Z,20.00
2022-10-22T03:03:20.715Z,22.90
2022-10-22T03:05:47.368Z,21.20
2022-10-22T03:08:13.911Z,25.60
2022-10-22T03:10:40.675Z,23.30
2022-10-22T03:13:07.219Z,24.20
2022-10-22T03:15:33.779Z,22.90
2022-10-22T03:18:00.595Z,25.30
2022-10-22T03:20:27.247Z,26.70
2022-10-22T03:22:55.634Z,23.10
2022-10-22T03:25:24.790Z,21.10
2022-10-22T03:27:55.442Z,22.20
2022-10-22T03:30:22.011Z,31.60
2022-10-22T03:32:48.589Z,43.40
2022-10-22T03:35:15.233Z,39.40
2022-10-22T03:37:42.301Z,39.70
2022-10-22T03:40:10.829Z,29.10
2022-10-22T03:42:37.685Z,27.80
2022-10-22T03:45:05.107Z,32.40
2022-10-22T03:47:31.667Z,25.70
2022-10-22T03:49:58.245Z,24.90
2022-10-22T03:52:25.141Z,25.40
2022-10-22T03:54:51.752Z,26.10
2022-10-22T03:57:18.649Z,26.40
2022-10-22T03:59:46.123Z,22.30
2022-10-22T04:02:14.084Z,20.60
2022-10-22T04:04:40.918Z,19.80
2022-10-22T04:07:08.193Z,32.40
2022-10-22T04:09:35.088Z,21.70
2022-10-22T04:12:05.322Z,23.10
2022-10-22T04:14:32.230Z,27.10
2022-10-22T04:16:58.864Z,25.50
2022-10-22T04:19:25.439Z,24.50
2022-10-22T04:21:51.982Z,22.40
2022-10-22T04:24:18.593Z,25.10
2022-10-22T04:26:45.181Z,29.10
2022-10-22T04:29:15.934Z,30.50
2022-10-22T04:31:43.114Z,35.60
2022-10-22T04:34:11.004Z,32.90
2022-10-22T04:36:37.623Z,38.60
2022-10-22T04:39:05.384Z,41.90
2022-10-22T04:41:35.494Z,34.10
2022-10-22T04:44:03.162Z,32.40
2022-10-22T04:46:32.426Z,37.40
2022-10-22T04:48:59.437Z,29.70
2022-10-22T04:51:27.314Z,27.00
2022-10-22T04:53:54.298Z,24.40
2022-10-22T04:56:24.276Z,29.70
2022-10-22T04:58:54.158Z,29.00
2022-10-22T05:01:24.665Z,27.30
2022-10-22T05:03:53.162Z,24.00
2022-10-22T05:06:21.092Z,29.10
2022-10-22T05:08:51.510Z,25.60
2022-10-22T05:11:21.821Z,25.10
2022-10-22T05:13:49.235Z,28.00
2022-10-22T05:16:16.185Z,25.70
2022-10-22T05:18:44.699Z,27.20
2022-10-22T05:21:14.561Z,20.80
2022-10-22T05:23:41.767Z,20.50
2022-10-22T05:26:10.539Z,24.20
2022-10-22T05:28:38.695Z,24.50
2022-10-22T05:31:08.086Z,18.20
2022-10-22T05:33:35.145Z,24.50
2022-10-22T05:36:04.337Z,22.30
2022-10-22T05:38:32.779Z,20.30
2022-10-22T05:41:01.734Z,17.10
2022-10-22T05:43:29.097Z,18.60
2022-10-22T05:45:56.167Z,19.90
2022-10-22T05:48:22.849Z,20.20
2022-10-22T05:50:50.305Z,16.10
2022-10-22T05:53:18.205Z,18.90
2022-10-22T05:55:45.501Z,20.50
2022-10-22T05:58:13.124Z,17.60
2022-10-22T06:00:40.272Z,16.20
2022-10-22T06:03:07.004Z,34.50
2022-10-22T06:05:35.846Z,19.20
2022-10-22T06:08:03.651Z,24.00
2022-10-22T06:10:31.061Z,14.70
2022-10-22T06:12:57.765Z,17.40
2022-10-22T06:15:24.316Z,17.40
2022-10-22T06:17:50.947Z,17.20
2022-10-22T06:20:17.868Z,19.10
2022-10-22T06:22:44.728Z,17.40
2022-10-22T06:25:11.902Z,19.50
2022-10-22T06:27:38.691Z,16.10
2022-10-22T06:30:06.090Z,17.40
2022-10-22T06:32:32.708Z,20.10
2022-10-22T06:34:59.456Z,17.50
2022-10-22T06:37:26.277Z,15.80
2022-10-22T06:39:53.022Z,19.40
2022-10-22T06:42:19.810Z,21.80
2022-10-22T06:44:47.733Z,18.10
2022-10-22T06:47:14.465Z,24.10
2022-10-22T06:49:41.998Z,21.90
2022-10-22T06:52:08.640Z,22.30
2022-10-22T06:54:35.270Z,18.20
2022-10-22T06:57:01.888Z,19.00
2022-10-22T06:59:28.680Z,23.30
2022-10-22T07:01:55.284Z,17.10
2022-10-22T07:04:22.030Z,19.00
2022-10-22T07:06:48.696Z,23.00
2022-10-22T07:09:15.520Z,18.80
2022-10-22T07:11:45.211Z,27.30
2022-10-22T07:14:13.288Z,21.20
2022-10-22T07:16:50.851Z,20.40
2022-10-22T07:19:17.534Z,23.90
2022-10-22T07:21:44.265Z,17.60
2022-10-22T07:24:11.197Z,22.40
2022-10-22T07:26:37.871Z,25.70
2022-10-22T07:29:05.832Z,25.10
2022-10-22T07:31:32.388Z,21.40
2022-10-22T07:33:59.016Z,17.10
2022-10-22T07:36:26.171Z,19.90
2022-10-22T07:38:55.966Z,20.00
2022-10-22T07:41:25.622Z,22.10
2022-10-22T07:43:52.305Z,18.00
2022-10-22T07:46:19.812Z,21.90
2022-10-22T07:48:46.699Z,21.30
2022-10-22T07:51:14.722Z,23.80
2022-10-22T07:53:41.400Z,24.60
2022-10-22T07:56:08.649Z,20.30
2022-10-22T07:58:35.557Z,19.90
2022-10-22T08:01:05.034Z,23.80
2022-10-22T08:03:32.471Z,25.70
2022-10-22T08:06:00.582Z,24.10
2022-10-22T08:08:30.719Z,22.10
2022-10-22T08:11:00.087Z,29.50
2022-10-22T08:13:29.738Z,20.70
2022-10-22T08:15:57.995Z,24.40
2022-10-22T08:18:25.856Z,31.00
2022-10-22T08:20:52.885Z,21.40
2022-10-22T08:23:24.409Z,20.20
2022-10-22T08:25:54.413Z,26.10
2022-10-22T08:28:22.113Z,20.50
2022-10-22T08:30:49.329Z,20.80
2022-10-22T08:33:15.993Z,20.40
2022-10-22T08:35:49.040Z,30.00
2022-10-22T08:38:15.549Z,26.00
2022-10-22T08:40:46.796Z,20.60
2022-10-22T08:43:52.295Z,28.70
2022-10-22T08:46:36.716Z,21.20
2022-10-22T08:51:39.891Z,29.40
2022-10-22T08:54:26.511Z,27.60
2022-10-22T08:57:22.318Z,23.30
2022-10-22T09:00:12.981Z,19.90
2022-10-22T09:03:02.522Z,30.80
2022-10-22T09:05:55.291Z,25.60
2022-10-22T09:08:22.629Z,24.80
2022-10-22T09:10:55.816Z,28.30
2022-10-22T09:13:23.525Z,32.20
2022-10-22T09:15:55.726Z,32.50
2022-10-22T09:18:53.551Z,32.00
2022-10-22T09:21:43.632Z,31.00
2022-10-22T09:24:32.177Z,39.80
2022-10-22T09:27:02.066Z,31.50
2022-10-22T09:29:37.434Z,32.70
2022-10-22T09:32:04.759Z,30.90
2022-10-22T09:34:32.127Z,28.50
2022-10-22T09:37:17.742Z,28.30
2022-10-22T09:39:47.336Z,32.40
2022-10-22T09:42:16.231Z,32.40
2022-10-22T09:44:46.170Z,37.00
2022-10-22T09:47:43.446Z,34.50
2022-10-22T09:50:40.482Z,32.90
2022-10-22T09:53:28.542Z,39.00
2022-10-22T09:55:58.472Z,41.80
2022-10-22T09:58:26.154Z,30.10
2022-10-22T10:00:56.637Z,30.60
2022-10-22T10:03:27.459Z,33.70
2022-10-22T10:06:01.554Z,31.90
2022-10-22T10:08:34.137Z,25.00
2022-10-22T10:11:34.454Z,22.80
2022-10-22T10:14:15.149Z,26.90
2022-10-22T10:16:55.709Z,37.90
2022-10-22T10:19:49.572Z,28.10
2022-10-22T10:22:47.420Z,26.50
2022-10-22T10:25:31.430Z,27.70
2022-10-22T10:28:12.305Z,26.10
2022-10-22T10:30:51.260Z,29.70
2022-10-22T10:33:37.605Z,24.10
2022-10-22T10:36:16.698Z,29.00
2022-10-22T10:39:00.782Z,26.30
2022-10-22T10:41:48.311Z,25.00
2022-10-22T10:44:36.590Z,21.20
2022-10-22T10:47:30.526Z,20.80
2022-10-22T10:50:19.037Z,37.10
2022-10-22T10:53:09.597Z,21.90
2022-10-22T10:55:47.754Z,26.10
2022-10-22T10:58:36.976Z,25.40
2022-10-22T11:01:19.238Z,22.50
2022-10-22T11:04:09.969Z,21.50
2022-10-22T11:06:38.716Z,18.10
2022-10-22T11:09:18.052Z,19.60
2022-10-22T11:11:51.543Z,24.80
2022-10-22T11:14:26.467Z,25.60
2022-10-22T11:17:03.850Z,21.30
2022-10-22T11:19:53.921Z,29.10
2022-10-22T11:22:31.498Z,23.00
2022-10-22T11:25:14.953Z,16.50
2022-10-22T11:27:54.052Z,19.10
2022-10-22T11:30:23.393Z,22.40
2022-10-22T11:32:55.603Z,18.20
2022-10-22T11:35:28.446Z,21.00
2022-10-22T11:37:57.332Z,19.80
2022-10-22T11:40:46.672Z,21.90
2022-10-22T11:43:32.009Z,13.00
2022-10-22T11:46:32.436Z,16.00
2022-10-22T11:49:21.464Z,22.10
2022-10-22T11:51:48.051Z,22.90
2022-10-22T11:54:41.953Z,19.50
2022-10-22T11:57:19.313Z,19.30
2022-10-22T11:59:52.078Z,17.80
2022-10-22T12:02:42.476Z,15.10
2022-10-22T12:05:31.465Z,16.90
2022-10-22T12:08:05.829Z,23.50
2022-10-22T12:10:48.023Z,19.80
2022-10-22T12:13:23.941Z,18.30
2022-10-22T12:15:55.853Z,20.40
2022-10-22T12:18:27.041Z,19.90
2022-10-22T12:20:54.652Z,21.90
2022-10-22T12:23:28.345Z,15.00
2022-10-22T12:25:54.965Z,17.00
2022-10-22T12:28:22.128Z,17.30
2022-10-22T12:30:48.766Z,23.70
2022-10-22T12:33:22.816Z,19.40
2022-10-22T12:35:53.530Z,21.50
2022-10-22T12:38:22.382Z,22.40
2022-10-22T12:40:53.472Z,18.70
2022-10-22T12:43:29.320Z,22.50
2022-10-22T12:46:00.249Z,23.30
2022-10-22T12:48:31.392Z,16.40
2022-10-22T12:51:00.549Z,21.50
2022-10-22T12:53:34.570Z,20.20
2022-10-22T12:56:05.885Z,24.60
2022-10-22T12:58:39.031Z,15.80
2022-10-22T13:01:06.145Z,17.80
2022-10-22T13:03:38.114Z,20.60
2022-10-22T13:06:14.284Z,22.20
2022-10-22T13:08:40.819Z,18.00
2022-10-22T13:11:10.533Z,18.10
2022-10-22T13:13:43.076Z,19.40
2022-10-22T13:16:20.419Z,25.00
2022-10-22T13:18:48.194Z,22.60
2022-10-22T13:21:33.237Z,20.00
2022-10-22T13:24:02.939Z,26.90
2022-10-22T13:26:33.733Z,18.20
2022-10-22T13:29:02.095Z,21.40
2022-10-22T13:31:32.833Z,23.00
2022-10-22T13:34:08.534Z,26.30
2022-10-22T13:36:37.548Z,24.70
2022-10-22T13:39:07.469Z,17.00
2022-10-22T13:44:04.462Z,26.80
2022-10-22T13:46:31.020Z,24.10
2022-10-22T13:48:59.282Z,25.20
2022-10-22T13:51:34.228Z,23.30
2022-10-22T13:54:02.900Z,23.20
2022-10-22T13:56:29.340Z,31.70
2022-10-22T13:58:55.819Z,28.20
2022-10-22T14:01:26.003Z,22.80
2022-10-22T14:03:57.186Z,26.40
2022-10-22T14:06:28.130Z,22.30
2022-10-22T14:08:59.250Z,24.40
2022-10-22T14:11:26.775Z,28.70
2022-10-22T14:13:54.119Z,38.70
2022-10-22T14:16:23.417Z,39.10
2022-10-22T14:18:50.632Z,29.10
2022-10-22T14:21:18.549Z,25.30
2022-10-22T14:23:47.089Z,26.40
2022-10-22T14:26:32.480Z,27.70
2022-10-22T14:29:15.951Z,27.60
2022-10-22T14:31:44.363Z,25.00
2022-10-22T14:34:14.631Z,34.00
2022-10-22T14:36:43.110Z,23.30
2022-10-22T14:39:09.665Z,27.20
2022-10-22T14:41:37.140Z,28.50
2022-10-22T14:44:11.913Z,28.80
2022-10-22T14:46:39.627Z,28.10
2022-10-22T14:49:06.063Z,22.50
2022-10-22T14:51:32.572Z,29.00
2022-10-22T14:53:59.107Z,33.50
2022-10-22T14:56:25.580Z,33.20
2022-10-22T14:58:53.135Z,36.80
2022-10-22T15:01:22.552Z,32.50
2022-10-22T15:03:49.150Z,38.80
2022-10-22T15:06:15.971Z,26.50
2022-10-22T15:08:44.556Z,30.40
2022-10-22T15:11:12.645Z,26.00
2022-10-22T15:13:40.721Z,33.00
2022-10-22T15:16:09.801Z,31.50
2022-10-22T15:18:36.582Z,27.80
2022-10-22T15:21:15.034Z,25.00
2022-10-22T15:23:42.993Z,27.70
2022-10-22T15:26:11.230Z,32.00
2022-10-22T15:28:39.174Z,26.70
2022-10-22T15:31:06.666Z,30.80
2022-10-22T15:33:33.378Z,33.60
2022-10-22T15:36:13.695Z,28.70
2022-10-22T15:38:41.213Z,32.30
2022-10-22T15:41:09.516Z,28.00
2022-10-22T15:43:36.757Z,32.70
2022-10-22T15:46:13.683Z,34.30
2022-10-22T15:48:41.129Z,36.30
2022-10-22T15:51:10.720Z,36.10
2022-10-22T15:53:38.219Z,33.80
2022-10-22T15:56:05.105Z,25.40
2022-10-22T15:58:34.631Z,29.60
2022-10-22T16:01:07.576Z,29.50
2022-10-22T16:03:34.933Z,34.50
2022-10-22T16:06:02.208Z,30.50
2022-10-22T16:08:29.419Z,37.70
2022-10-22T16:10:57.947Z,32.00
2022-10-22T16:13:25.954Z,38.10
2022-10-22T16:15:53.836Z,31.80
2022-10-22T16:18:21.036Z,35.00
2022-10-22T16:20:47.700Z,35.20
2022-10-22T16:23:18.095Z,40.50
2022-10-22T16:25:45.681Z,41.10
2022-10-22T16:28:12.438Z,34.80
2022-10-22T16:30:39.956Z,41.90
2022-10-22T16:33:07.615Z,48.00
2022-10-22T16:35:35.117Z,41.40
2022-10-22T16:38:01.963Z,33.70
2022-10-22T16:40:28.552Z,36.70
2022-10-22T16:42:55.205Z,34.90
2022-10-22T16:45:21.835Z,32.50
2022-10-22T16:47:49.031Z,31.60
2022-10-22T16:50:15.724Z,34.30
2022-10-22T16:52:50.330Z,32.10
2022-10-22T16:55:17.463Z,34.00
2022-10-22T16:57:51.244Z,35.30
2022-10-22T17:00:19.253Z,29.60
2022-10-22T17:02:52.124Z,36.60
2022-10-22T17:05:19.599Z,27.30
2022-10-22T17:07:46.442Z,44.30
2022-10-22T17:10:13.581Z,36.10
2022-10-22T17:12:40.672Z,29.40
2022-10-22T17:15:08.138Z,34.50
2022-10-22T17:17:35.078Z,30.90
2022-10-22T17:20:01.917Z,32.30
2022-10-22T17:22:28.625Z,31.60
2022-10-22T17:25:07.364Z,31.40
2022-10-22T17:27:34.002Z,37.70
2022-10-22T17:30:00.518Z,30.80
2022-10-22T17:32:28.625Z,28.80
2022-10-22T17:34:55.556Z,32.60
2022-10-22T17:37:22.720Z,32.40
2022-10-22T17:39:49.368Z,35.40
2022-10-22T17:42:16.413Z,43.20
2022-10-22T17:44:42.973Z,31.20
2022-10-22T17:47:09.701Z,40.50
2022-10-22T17:49:36.306Z,51.80
2022-10-22T17:52:03.139Z,26.60
2022-10-22T17:54:29.872Z,32.90
2022-10-22T17:56:56.400Z,30.20
2022-10-22T17:59:22.925Z,36.20
2022-10-22T18:01:49.673Z,37.40
2022-10-22T18:04:25.239Z,36.00
2022-10-22T18:07:08.076Z,29.30
2022-10-22T18:09:34.809Z,38.00
2022-10-22T18:12:01.581Z,30.90
2022-10-22T18:14:28.835Z,37.90
2022-10-22T18:16:55.468Z,34.10
2022-10-22T18:19:23.945Z,31.50
2022-10-22T18:21:50.813Z,35.40
2022-10-22T18:24:18.118Z,37.00
2022-10-22T18:26:46.949Z,42.50
2022-10-22T18:29:16.339Z,36.90
2022-10-22T18:31:43.622Z,42.60
2022-10-22T18:34:11.011Z,39.40
2022-10-22T18:36:37.980Z,40.90
2022-10-22T18:39:04.763Z,36.00
2022-10-22T18:41:32.761Z,35.30
2022-10-22T18:44:02.020Z,30.50
2022-10-22T18:46:32.107Z,36.60
2022-10-22T18:48:58.839Z,29.70
2022-10-22T18:51:30.047Z,31.70
2022-10-22T18:54:05.521Z,27.20
2022-10-22T18:56:44.201Z,25.90
2022-10-22T18:59:18.649Z,22.90
2022-10-22T19:01:45.253Z,20.90
2022-10-22T19:04:13.116Z,23.90
2022-10-22T19:06:42.996Z,25.30
2022-10-22T19:09:13.124Z,21.50
2022-10-22T19:11:39.595Z,30.60
2022-10-22T19:14:05.987Z,28.60
2022-10-22T19:16:34.368Z,30.30
2022-10-22T19:19:03.648Z,29.90
2022-10-22T19:21:31.568Z,37.40
2022-10-22T19:23:59.304Z,31.00
2022-10-22T19:26:28.393Z,31.00
2022-10-22T19:28:56.377Z,31.20
2022-10-22T19:31:26.727Z,43.50
2022-10-22T19:33:54.745Z,52.00
2022-10-22T19:36:24.566Z,49.70
2022-10-22T19:38:51.654Z,49.00
2022-10-22T19:41:25.641Z,53.40
2022-10-22T19:43:54.280Z,48.30
2022-10-22T19:46:21.941Z,51.00
2022-10-22T19:48:50.549Z,46.50
2022-10-22T19:51:22.280Z,58.40
2022-10-22T19:53:49.942Z,43.20
2022-10-22T19:56:19.445Z,46.50
2022-10-22T19:58:46.206Z,47.50
2022-10-22T20:01:16.494Z,51.80
2022-10-22T20:03:43.345Z,52.10
2022-10-22T20:06:12.165Z,46.70
2022-10-22T20:08:39.240Z,37.70
2022-10-22T20:11:10.119Z,46.20
2022-10-22T20:16:04.924Z,35.80
2022-10-22T20:18:33.540Z,37.20
2022-10-22T20:21:04.896Z,37.10
2022-10-22T20:23:32.532Z,43.40
2022-10-22T20:25:59.642Z,40.30
2022-10-22T20:28:26.340Z,44.40
2022-10-22T20:30:52.879Z,48.20
2022-10-22T20:33:19.500Z,47.80
2022-10-22T20:35:46.263Z,39.80
2022-10-22T20:38:14.505Z,37.20
2022-10-22T20:40:41.331Z,39.70
2022-10-22T20:43:13.428Z,39.70
2022-10-22T20:45:39.945Z,37.70
2022-10-22T20:48:06.737Z,38.90
2022-10-22T20:50:33.559Z,33.90
2022-10-22T20:53:00.122Z,42.70
2022-10-22T20:55:27.074Z,33.20
2022-10-22T20:57:54.588Z,32.70
2022-10-22T21:00:21.262Z,39.50
2022-10-22T21:02:47.789Z,37.50
2022-10-22T21:05:14.529Z,33.90
2022-10-22T21:07:41.521Z,31.50
2022-10-22T21:10:08.511Z,37.90
2022-10-22T21:12:35.410Z,34.00
2022-10-22T21:15:01.990Z,34.40
2022-10-22T21:17:28.623Z,33.70
2022-10-22T21:19:55.228Z,38.70
2022-10-22T21:22:21.807Z,33.90
2022-10-22T21:24:48.818Z,32.90
2022-10-22T21:27:15.582Z,32.00
2022-10-22T21:29:42.227Z,30.80
2022-10-22T21:32:08.920Z,34.40
2022-10-22T21:34:38.811Z,31.30
2022-10-22T21:37:05.902Z,32.50
2022-10-22T21:39:32.442Z,34.70
2022-10-22T21:41:59.083Z,36.10
2022-10-22T21:44:25.669Z,38.30
2022-10-22T21:46:52.734Z,37.10
2022-10-22T21:49:19.420Z,35.00
2022-10-22T21:51:46.191Z,26.60
2022-10-22T21:54:12.815Z,31.90
2022-10-22T21:56:40.949Z,25.30
2022-10-22T21:59:07.659Z,24.70
2022-10-22T22:01:34.822Z,24.60
2022-10-22T22:04:01.792Z,21.70
2022-10-22T22:06:33.202Z,25.80
2022-10-22T22:09:03.512Z,23.00
2022-10-22T22:11:30.498Z,22.40
2022-10-22T22:13:58.054Z,22.50
2022-10-22T22:16:28.848Z,22.70
2022-10-22T22:18:59.770Z,30.10
2022-10-22T22:21:26.978Z,25.70
2022-10-22T22:23:53.748Z,26.20
2022-10-22T22:26:26.694Z,32.30
2022-10-22T22:28:58.436Z,30.50
2022-10-22T22:31:29.111Z,31.40
2022-10-22T22:34:13.968Z,32.40
2022-10-22T22:36:44.769Z,30.80
2022-10-22T22:39:14.115Z,26.70
2022-10-22T22:41:42.096Z,22.70
2022-10-22T22:44:09.029Z,23.40
2022-10-22T22:46:35.813Z,17.00
2022-10-22T22:49:03.527Z,23.50
2022-10-22T22:51:31.058Z,23.90
2022-10-22T22:53:59.610Z,23.60
2022-10-22T22:56:28.830Z,25.40
2022-10-22T22:58:55.857Z,19.10
2022-10-22T23:01:27.815Z,19.80
2022-10-22T23:03:59.299Z,26.90
2022-10-22T23:06:28.641Z,18.70
2022-10-22T23:08:55.869Z,20.50
2022-10-22T23:11:24.438Z,21.90
2022-10-22T23:13:54.352Z,22.40
2022-10-22T23:16:23.230Z,19.20
2022-10-22T23:18:52.613Z,21.80
2022-10-22T23:21:22.311Z,24.20
2022-10-22T23:23:52.794Z,17.50
2022-10-22T23:26:24.565Z,16.80
2022-10-22T23:28:51.489Z,10.60
2022-10-22T23:31:21.121Z,11.90
2022-10-22T23:33:48.261Z,8.40
2022-10-22T23:36:15.175Z,5.90
2022-10-22T23:38:42.948Z,7.00
2022-10-22T23:41:12.784Z,8.20
2022-10-22T23:43:39.573Z,9.20
2022-10-22T23:46:09.880Z,9.20
2022-10-22T23:48:38.628Z,10.20
2022-10-22T23:51:09.639Z,10.90
2022-10-22T23:53:36.815Z,9.30
2022-10-22T23:56:06.734Z,11.60
2022-10-22T23:58:34.695Z,12.50
